createdAt,value
2022-11-10T06:21:25.541Z,18.10
2022-11-10T06:23:52.076Z,17.60
2022-11-10T06:26:18.848Z,16.97
2022-11-10T06:28:45.418Z,16.90
2022-11-10T06:31:11.991Z,17.57
2022-11-10T06:33:38.603Z,16.30
2022-11-10T06:36:05.392Z,22.00
2022-11-10T06:38:31.976Z,16.57
2022-11-10T06:40:58.554Z,15.53
2022-11-10T06:43:25.324Z,17.57
2022-11-10T06:45:52.073Z,13.97
2022-11-10T06:48:19.494Z,20.93
2022-11-10T06:50:46.031Z,18.63
2022-11-10T06:53:13.752Z,20.40
2022-11-10T06:55:40.318Z,26.00
2022-11-10T06:58:06.891Z,28.83
2022-11-10T07:00:33.791Z,16.83
2022-11-10T07:03:05.832Z,16.50
2022-11-10T07:05:34.718Z,17.13
2022-11-10T07:08:09.326Z,25.03
2022-11-10T07:10:36.764Z,17.13
2022-11-10T07:13:04.761Z,15.97
2022-11-10T07:15:31.921Z,14.53
2022-11-10T07:17:58.548Z,18.30
2022-11-10T07:20:26.142Z,18.03
2022-11-10T07:23:00.602Z,15.23
2022-11-10T07:25:29.069Z,17.50
2022-11-10T07:28:00.287Z,21.20
2022-11-10T07:30:28.236Z,19.10
2022-11-10T07:33:05.790Z,21.53
2022-11-10T07:35:33.446Z,21.87
2022-11-10T07:38:05.996Z,22.40
2022-11-10T07:40:32.952Z,24.97
2022-11-10T07:42:59.613Z,13.75
2022-11-10T07:45:27.047Z,13.53
2022-11-10T07:47:59.581Z,16.23
2022-11-10T07:50:26.239Z,12.53
2022-11-10T07:52:53.241Z,15.30
2022-11-10T07:55:19.820Z,12.97
2022-11-10T07:57:46.379Z,16.90
2022-11-10T08:00:13.585Z,11.63
2022-11-10T08:02:40.468Z,12.33
2022-11-10T08:05:07.222Z,17.23
2022-11-10T08:07:33.914Z,10.90
2022-11-10T08:10:00.609Z,13.87
2022-11-10T08:12:29.917Z,16.53
2022-11-10T08:14:59.258Z,15.27
2022-11-10T08:17:25.835Z,18.77
2022-11-10T08:19:52.408Z,15.23
2022-11-10T08:22:19.125Z,13.93
2022-11-10T08:24:45.689Z,12.30
2022-11-10T08:27:12.226Z,14.63
2022-11-10T08:34:31.704Z,14.83
2022-11-10T11:33:03.217Z,19.27
2022-11-10T11:35:48.933Z,14.00
2022-11-10T11:38:20.353Z,12.10
2022-11-10T11:40:49.255Z,13.73
2022-11-10T11:43:28.617Z,12.13
2022-11-10T11:46:19.561Z,17.67
2022-11-10T11:49:03.064Z,15.43
2022-11-10T11:51:55.237Z,14.67
2022-11-10T11:54:30.376Z,14.30
2022-11-10T11:57:21.562Z,14.83
2022-11-10T12:00:04.308Z,15.10
2022-11-10T12:03:08.312Z,14.83
2022-11-10T12:05:49.881Z,14.47
2022-11-10T12:08:28.658Z,10.27
2022-11-10T12:11:21.521Z,12.40
2022-11-10T12:14:02.358Z,13.73
2022-11-10T12:16:30.987Z,14.10
2022-11-10T12:19:25.753Z,13.47
2022-11-10T12:21:57.853Z,10.40
2022-11-10T12:24:36.512Z,11.13
2022-11-10T12:29:43.541Z,11.50
2022-11-10T12:32:36.163Z,12.60
2022-11-10T12:35:22.681Z,9.03
2022-11-10T12:37:54.242Z,9.00
2022-11-10T12:40:31.618Z,11.87
2022-11-10T12:43:03.501Z,11.33
2022-11-10T12:45:34.197Z,8.33
2022-11-10T12:48:01.451Z,9.83
2022-11-10T12:50:57.526Z,13.37
2022-11-10T12:53:36.922Z,10.43
2022-11-10T12:56:23.764Z,10.90
2022-11-10T12:59:21.162Z,11.50
2022-11-10T13:01:56.473Z,8.90
2022-11-10T13:04:23.272Z,8.23
2022-11-10T13:07:01.149Z,8.37
2022-11-10T20:56:03.994Z,20.27
2022-11-10T20:58:30.690Z,21.67
2022-11-10T21:01:17.658Z,20.87
2022-11-10T21:03:46.114Z,26.47
2022-11-10T21:06:12.667Z,25.40
2022-11-10T21:08:39.250Z,20.17
2022-11-10T21:11:07.126Z,23.67
2022-11-10T21:13:34.324Z,22.60
2022-11-10T21:16:02.651Z,23.40
2022-11-10T21:18:34.469Z,18.17
2022-11-10T21:21:01.234Z,20.50
2022-11-10T21:23:27.851Z,18.47
2022-11-10T21:26:00.367Z,18.63
2022-11-10T21:28:27.483Z,22.73
2022-11-10T21:31:05.245Z,14.43
2022-11-10T21:33:31.941Z,16.43
2022-11-10T21:35:58.494Z,15.97
2022-11-10T21:38:25.143Z,23.03
2022-11-10T21:40:51.697Z,18.00
2022-11-10T21:43:18.230Z,16.53
2022-11-10T21:45:44.901Z,18.77
2022-11-10T21:48:11.650Z,19.57
2022-11-10T21:50:38.227Z,29.23
2022-11-10T21:53:08.601Z,25.30
2022-11-10T21:55:35.201Z,20.60
2022-11-10T21:58:01.758Z,21.00
2022-11-10T22:00:28.330Z,20.33
2022-11-10T22:02:59.435Z,22.67
2022-11-10T22:05:26.292Z,13.67
2022-11-10T22:07:53.085Z,21.87
2022-11-10T22:10:38.106Z,17.20
2022-11-10T22:13:23.619Z,17.63
2022-11-10T22:16:08.800Z,18.50
2022-11-10T22:18:38.289Z,18.57
2022-11-10T22:21:05.366Z,17.77
2022-11-10T22:23:50.419Z,18.07
2022-11-10T22:26:17.420Z,16.10
2022-11-10T22:28:44.359Z,21.87
2022-11-10T22:31:11.599Z,13.90
2022-11-10T22:33:39.844Z,15.50
2022-11-10T22:36:09.199Z,17.57
2022-11-10T22:38:37.502Z,18.73
2022-11-10T22:41:22.986Z,16.67
2022-11-10T22:44:04.737Z,18.00
2022-11-10T22:46:34.159Z,15.37
2022-11-10T22:49:02.070Z,13.53
2022-11-10T22:51:30.045Z,15.23
2022-11-10T22:53:56.847Z,17.33
2022-11-10T22:56:23.584Z,18.37
2022-11-10T22:58:51.663Z,18.13
2022-11-10T23:01:21.079Z,16.70
2022-11-10T23:03:47.648Z,17.87
2022-11-10T23:06:14.462Z,15.77
2022-11-10T23:08:41.074Z,19.53
2022-11-10T23:11:14.220Z,17.83
2022-11-10T23:13:41.117Z,17.63
2022-11-10T23:16:13.406Z,19.33
2022-11-10T23:18:42.670Z,21.13
2022-11-10T23:21:11.491Z,16.33
2022-11-10T23:23:39.645Z,16.73
2022-11-10T23:26:12.013Z,17.13
2022-11-10T23:28:39.178Z,18.63
2022-11-10T23:31:07.557Z,21.63
2022-11-10T23:33:35.038Z,32.63
2022-11-10T23:36:02.341Z,24.13
2022-11-10T23:38:36.420Z,27.03
2022-11-10T23:41:04.693Z,21.33
2022-11-10T23:43:31.622Z,18.77
2022-11-10T23:46:07.200Z,18.23
2022-11-10T23:48:35.164Z,19.27
2022-11-10T23:51:01.808Z,22.50
2022-11-10T23:53:28.370Z,21.87
2022-11-10T23:56:06.889Z,18.13
2022-11-10T23:58:33.572Z,18.40
